This is the latest recevied weather packets stored in our database for station/object HA3YA-WX. If no packets are shown the sender has not sent any weather packets the latest 10 day(s).
| Time | Temp. | Humidity | Pressure | Rain* | Wind** | Luminosity | Snow |
|---|---|---|---|---|---|---|---|
| 1788423685 | 26.11° C | 69% | 1007.5 hPa | - | - | - | - |
| 1788423085 | 26.11° C | 70% | 1007 hPa | - | - | - | - |
| 1788422497 | 25° C | 73% | 1007 hPa | - | - | - | - |
| 1788421884 | 23.89° C | 78% | 1007 hPa | - | - | - | - |
| 1788421284 | 22.78° C | 82% | 1007 hPa | - | - | - | - |
| 1788420685 | 22.78° C | 84% | 1007 hPa | - | - | - | - |
| 1788420085 | 22.78° C | 83% | 1007.6 hPa | - | - | - | - |
| 1788419485 | 22.78° C | 80% | 1007.5 hPa | - | - | - | - |
| 1788418884 | 22.22° C | 81% | 1007.5 hPa | - | - | - | - |
| 1788418284 | 22.22° C | 82% | 1007.5 hPa | - | - | - | - |
| 1788417684 | 22.22° C | 82% | 1007.5 hPa | - | - | - | - |
| 1788417084 | 21.67° C | 81% | 1007.5 hPa | - | - | - | - |
| 1788416485 | 21.67° C | 82% | 1007.1 hPa | - | - | - | - |
| 1788415885 | 21.11° C | 82% | 1007.1 hPa | - | - | - | - |
| 1788415285 | 20.56° C | 83% | 1007.1 hPa | - | - | - | - |
| 1788414684 | 20.56° C | 85% | 1007.1 hPa | - | - | - | - |
| 1788414084 | 20° C | 89% | 1007.1 hPa | - | - | - | - |
| 1788413485 | 18.89° C | 90% | 1007.1 hPa | - | - | - | - |
| 1788412884 | 18.33° C | 92% | 1006.9 hPa | - | - | - | - |
| 1788412285 | 17.22° C | 92% | 1006.9 hPa | - | - | - | - |
| 1788411684 | 16.67° C | 92% | 1006.9 hPa | - | - | - | - |
| 1788411084 | 16.67° C | 91% | 1006.9 hPa | - | - | - | - |
| 1788410485 | 16.67° C | 91% | 1006.9 hPa | - | - | - | - |
| 1788409885 | 16.67° C | 90% | 1006 hPa | - | - | - | - |
| 1788409285 | 16.67° C | 90% | 1006 hPa | - | - | - | - |
* Rain since midnight (hover to see other rain measurements)
** Current wind speed in m/s (hover to see current wind gust speed)